Hovedside
METAR-TAF:

METAR-TAF

Lufthavner :

Notodden lufthavn

Notodden, Norge

breddegrad: 59-34N, lengdegrad: 009-13E, høyde over havet: 19 m

Gjeldene værobservasjon

Denne rapporten ble laget for 19 timer og 8 minutter siden, klokken 14:50 UTC
Flau vind
Temperatur 10°C
Luftfuktighet 76%
Trykk 1002 hPa
Sikt 10 km eller mer
Få skyer i en høyde av 1000 ft
Spredte skyer i en høyde av 2700 ft
Brutte skyer i en høyde av 4000 ft

METAR: ENNO 191450Z 00000KT 9999 FEW010 SCT027 BKN040 10/06 Q1002

Tid: 11:58 (09:58 UTC)

Varsel

Denne rapporten ble laget for 22 timer og 58 minutter siden, klokken 11:00 UTC
Varsel gyldig fra 19. klokken 12 UTC til 19. klokken 15 UTC
Vind 5 kt fra skiftende retning
Sikt 10 km eller mer
Spredte skyer i en høyde av 2000 ft
Brutte skyer i en høyde av 3000 ft

TAF: ENNO 191100Z 1912/1915 VRB05KT 9999 SCT020 BKN030

Værobservasjoner og værvarsel for over 4000 flyplasser (METAR- og TAF-rapporter).

Tilgjengelige stasjoner er representert av de røde og gule prikkene på kartet.

Hold musepekeren over prikken for å se navnet på stasjonen.

Klikk så for å se værobservasjoner og -varsler.

For å forandre kartet kan du klikke på den grønne knappen med svart kryss for å zoome inn, på den grønne knappen med strek for å zoome ut, eller på de grønne pilene for å se tilstøtende kart.


METAR-TAF: